Scott, MS

5:20 PM CDT on April 25, 2015 (GMT -0500)
Mid Delta Regional | | Change Station
CLOSE
Current Station
Airport
Location: Greenville,
Elevation: 131 ft
Nearby Weather Stations
Active Advisory: Flood Advisory

Elev 131 ft 33.48 °N, 90.99 °W | Updated 27 minutes ago

Clear
Clear
83 °F
Feels Like 88 °F
N
17
Wind Variable Wind from SW

Today
High -- | Low -- °F
--% Chance of Precip.
Yesterday
High -- | Low -- °F
Precip. -- in
6:22 AM 7:42 PM
Waxing Crescent, 49% visible
Pressure 29.60 in
Visibility 6.0 miles
Clouds Clear
Heat Index 88 °F
Dew Point 71 °F
Humidity 67%
Rainfall 0.90 in
Snow Depth Not available.
UV 4 out of 12
Pollen 4.60 out of 12
Air Quality Not available.
Flu Activity No Activity
METAR KGLH 252153Z AUTO 23015KT 6SM HZ CLR 28/22 A2959 RMK AO2 SLP023 T02830217

More Conditions Fewer Conditions

Pressure 29.60 in
Visibility 6.0 miles
Clouds Clear
Heat Index 88 °F
Dew Point 71 °F
Humidity 67%
Rainfall 0.90 in
Snow Depth Not available.
UV 4 out of 12
Pollen 4.60 out of 12
Air Quality Not available.
Flu Activity No Activity
METAR KGLH 252153Z AUTO 23015KT 6SM HZ CLR 28/22 A2959 RMK AO2 SLP023 T02830217

More Conditions Fewer Conditions

10-Day Weather Forecast

Almanac

Astronomy

Apr. 25, 2015 Rise Set
Actual Time
Civil Twilight
Nautical Twilight
Astronomical Twilight
Moon
Length of Visible Light
Length of Day
Tomorrow will be .
, % of the Moon is Illuminated

Today's Extremes

State Highs State Lows

Community

WunderPhotos

Upload Photos

1,816,833 photos uploaded!

WunderBlogs® & News

Nearby

Air Quality

  Air Quality AQ Index Pollutant
Not available.

Snow Depth

Station Depth Elevation

Earthquake Activity

City Distance Mag. Time & Date
Minimum magnitude displayed is 2.5.

Coastal Water Temperatures

Place Temperature

Stations

Nearby Weather Stations

Station Location Temp. Windchill Dew Point Humidity Wind Precip. Elev Updated Type
                   
Flood Advisory
Statement as of 12:36 PM CDT on April 25, 2015

The Flood Advisory continues for
the Mississippi River near Arkansas City.
* Until late tonight.
* At 12:00 PM Saturday the stage was 33.3 feet.
* Flood stage is 37.0 feet.
* Forecast... the river will rise to near 34.2 feet by Thursday April
30.



              Flood observed forecast 7 am crest
location stg stg day time sun Mon Tue crest time date

Lower Mississippi River
Arkansas City 37 33.3 Sat 12 PM 33.5 33.8 34.0 34.2 07 am 04/30




Lat... Lon 3340 9128 3357 9128 3413 9108 3412 9066
      3358 9106 3340 9105